Date,TemperatureHighF,TemperatureAvgF,TemperatureLowF,DewpointHighF,DewpointAvgF,DewpointLowF,HumidityHigh,HumidityAvg,HumidityLow,PressureMaxIn,PressureMinIn,WindSpeedMaxMPH,WindSpeedAvgMPH,GustSpeedMaxMPH,PrecipitationSumIn
2013-6-1,74,58,41,45,40,34,93,57,26,30.27,30.03,11,3,13,0.00
2013-6-2,62,53,46,54,47,41,98,82,55,30.00,29.94,8,1,10,0.40
2013-6-3,73,58,45,56,46,40,98,70,33,30.09,29.97,13,3,17,0.00
2013-6-4,79,63,48,53,45,38,94,57,24,30.18,30.09,14,2,15,0.00
2013-6-5,83,66,46,53,47,44,92,55,29,30.09,29.97,12,2,14,0.00
2013-6-6,86,70,55,57,51,46,90,55,29,30.03,29.94,11,2,12,0.00
2013-6-7,82,69,56,54,46,37,91,49,24,29.97,29.85,20,8,26,0.00
2013-6-8,79,66,51,45,39,36,62,40,23,30.09,29.94,14,4,17,0.00
2013-6-9,77,64,48,45,39,31,83,44,21,29.97,29.88,15,6,20,0.00
2013-6-10,80,62,41,48,39,35,86,48,22,29.91,29.80,9,2,12,0.00
2013-6-11,72,59,43,46,38,30,86,49,27,30.03,29.83,17,5,20,0.00
2013-6-12,71,58,47,42,38,34,74,49,32,30.09,30.00,14,2,14,0.00
2013-6-13,71,56,44,47,40,35,84,58,29,30.09,30.03,15,5,25,0.00
2013-6-14,68,56,40,44,40,35,95,59,33,30.18,30.09,15,5,17,0.00
2013-6-15,83,63,39,47,41,36,95,52,22,30.09,29.97,13,3,14,0.00
2013-6-16,87,68,49,51,44,37,78,47,20,30.06,29.97,13,4,15,0.00
2013-6-17,86,71,59,57,49,45,74,48,26,30.03,29.85,11,2,14,0.00
2013-6-18,69,63,57,59,52,45,98,71,45,29.97,29.85,15,4,27,0.24
2013-6-19,58,54,50,56,52,45,98,93,64,29.91,29.83,15,3,16,0.28
2013-6-20,50,49,48,50,48,47,98,98,98,30.09,29.83,20,6,20,1.52
2013-6-21,65,55,49,56,49,44,98,81,48,30.12,30.06,10,1,10,0.12
2013-6-22,68,57,46,54,48,43,98,74,41,30.12,30.00,8,1,10,0.00
2013-6-23,79,64,47,56,48,42,96,62,29,30.00,29.68,11,4,11,0.00
2013-6-24,67,61,55,61,56,53,98,85,65,29.80,29.65,13,2,16,0.16
2013-6-25,70,60,49,62,53,48,98,78,49,29.94,29.80,10,2,13,0.16
2013-6-26,74,64,56,59,54,48,98,72,45,30.15,29.94,10,2,13,0.00
2013-6-27,81,69,56,66,56,53,96,67,41,30.24,30.15,11,2,12,0.00
2013-6-28,90,73,57,64,57,53,94,62,31,30.27,30.09,12,3,14,0.08
2013-6-29,75,68,61,67,60,57,94,78,56,30.18,30.03,18,4,23,0.08
2013-6-30,92,75,59,68,58,50,98,63,25,30.12,30.03,11,2,13,0.00